Monday, November 24, 2014
02:37 UTC
  |  Log In   |  Register Free
Airport Search:

Williamsburg-Jamestown Airport
(KJGG)

Williamsburg-Jamestown Airport Diagram
No Airport Diagram Available

FAA data valid effective November 13, 2014 - January 08, 2015 (unless otherwise noted).

 
 
 
 
 
 
 
 
 
 
 
 
 
 

Current Aviation Weather for Williamsburg-Jamestown Airport (KJGG)

The most recent METAR observation for KJGG was updated at: 0230
METAR Summary (Translated METAR)
KJGG
240215Z AUTO 15006KT 10SM BKN031 OVC039 16/14 A2996 RMK AO1
KFAF
240158Z AUTO 13010KT 10SM BKN040 OVC120 16/16 A2995 RMK AO2 SLP145 T01570157 $
(8.2 nm SE from KJGG)
KPHF
240154Z 14005KT 10SM BKN041 17/13 A2998 RMK AO2 SLP150 T01670133 $
(12.5 nm SE from KJGG)
TAF Summary (Translated TAF)
KFAF
(8.2 nm SE from KJGG)
2121/2301 32012KT 9999 SKC QNH3035INS BECMG 2121/2122 33010KT 9999 SKC QNH3048INS BECMG 2205/2206 VRB06KT 9999 SKC QNH3050INS TX06/2220Z TNM04/2211Z AMD 212110 LAST NO AMDS AFT 2204 NEXT 2411
KPHF
(12.5 nm SE from KJGG)
240229Z 2402/2424 14011KT P6SM BKN040 TEMPO 2402/2404 3SM -RA BR SCT008 OVC015 FM240400 16012G20KT 2SM -RA BR BKN008 FM240900 19015G25KT P6SM SCT008 BKN012 FM241600 19014G22KT P6SM BKN035
  Airport Weather Conditions for KJGG

 Current Weather at JGG
61° F
Mostly Cloudy
Southeast winds at 9.2 mph
JGG NOAA Radar

Pressure: 29.97 in
Humidity: 88%
Wind: Southeast at 9.2 MPH (8 KT)
Dew Point: 57.2°F
Visibility: 10.00 mi


Airport Weather Forecast for KJGG

Translated METAR and TAF for KJGG
Translated METAR for KJGG (0232 UTC 24 November 2014)
found at http://aviationweather.gov/adds/metars/
 
METAR text: KJGG 240215Z AUTO 15006KT 10SM BKN031 OVC039 16/14 A2996 RMK AO1
Conditions at: KJGG (WILLIAMSBURG , VA, US) observed 0215 UTC 24 November 2014
Temperature: 16.0°C (61°F)
Dewpoint: 14.0°C (57°F) [RH = 88%]
Pressure (altimeter): 29.96 inches Hg (1014.6 mb)
Winds: from the SSE (150 degrees) at 7 MPH (6 knots; 3.1 m/s)
Visibility: 10 or more miles (16+ km)
Ceiling: 3100 feet AGL
Clouds: broken clouds at 3100 feet AGL
overcast cloud deck at 3900 feet AGL
Weather: automated observation with no human augmentation;
there may or may not be significant weather present at this time
Translated TAF for KJGG

There is no translated TAF available for this airport

Find All Airport Services Find A Hotel Find A Rental Car Find A Golf Course Find A Restaurant $100 Hamburger



FBO's on the Field
FBO Company Facility Photos Services Transportation Aviation Fuel Prices: Prices include tax
Catering Weather Repair Courtesy Rental Type 100LL JetA JetA+ MOGAS 8087
 
Williamsburg-Jamestown

This FBO has not yet been rated
FS:Shell
Last Updated: Oct-28
Login to update fuel prices
SS:
Contact Williamsburg-JamestownMore FBO Information
 
Add another FBO Facility Photos Catering Weather Repair Courtesy Rental Type 100LL JetA JetA+ MOGAS 8087
Services Transportation Aviation Fuel Prices: Prices include tax


model-print
model-print
model-print
model-print